Time;durP1;ratioP1;P1;durP2;ratioP2;P2;SDS_P1;SDS_P2;PMS_P1;PMS_P2;Temp;Humidity;BMP_temperature;BMP_pressure;BME280_temperature;BME280_humidity;BME280_pressure;Samples;Min_cycle;Max_cycle;Signal;HPM_P1;HPM_P2
2021/10/06 00:02:45;;;;;;;6.80;1.80;;;13.10;99.90;;;;;;5053141;28;20402;-74
2021/10/06 00:05:31;;;;;;;3.53;1.20;;;13.10;99.90;;;;;;5045824;28;21117;-74
2021/10/06 00:08:18;;;;;;;3.53;1.30;;;13.10;99.90;;;;;;5047089;28;20453;-75
2021/10/06 00:11:04;;;;;;;3.57;1.70;;;13.10;99.90;;;;;;5050511;28;20453;-75
2021/10/06 00:13:50;;;;;;;10.20;1.63;;;13.10;99.90;;;;;;5048679;28;20426;-75
2021/10/06 00:16:36;;;;;;;4.23;1.80;;;13.10;99.90;;;;;;5043745;28;20466;-75
2021/10/06 00:19:22;;;;;;;7.00;1.40;;;13.10;99.90;;;;;;5040742;28;20423;-74
2021/10/06 00:22:08;;;;;;;3.17;1.70;;;13.00;99.90;;;;;;5044362;28;20589;-75
2021/10/06 00:24:55;;;;;;;4.00;2.00;;;12.90;99.90;;;;;;5050203;28;20474;-74
2021/10/06 00:27:41;;;;;;;5.30;1.30;;;13.00;99.90;;;;;;5048034;28;21040;-75
2021/10/06 00:30:27;;;;;;;4.77;1.67;;;13.00;99.90;;;;;;5052369;28;21075;-74
2021/10/06 00:33:12;;;;;;;2.70;2.27;;;13.00;99.90;;;;;;5051308;28;20879;-74
2021/10/06 00:35:58;;;;;;;2.80;1.17;;;13.00;99.90;;;;;;5049096;28;20811;-75
2021/10/06 00:38:43;;;;;;;2.53;1.27;;;13.00;99.90;;;;;;5052009;28;20431;-74
2021/10/06 00:41:30;;;;;;;4.73;1.53;;;12.90;99.90;;;;;;5035573;28;20517;-75
2021/10/06 00:44:16;;;;;;;4.60;1.30;;;12.90;99.90;;;;;;5044445;28;20435;-75
2021/10/06 00:47:03;;;;;;;4.17;1.53;;;12.80;99.90;;;;;;5051193;28;20431;-74
2021/10/06 00:49:49;;;;;;;6.30;2.07;;;12.80;99.90;;;;;;5043375;28;20454;-74
2021/10/06 00:52:35;;;;;;;3.13;1.77;;;12.80;99.90;;;;;;5045252;28;21122;-75
2021/10/06 00:55:21;;;;;;;3.10;2.10;;;12.70;99.90;;;;;;5047851;28;20483;-74
2021/10/06 00:58:08;;;;;;;2.77;1.70;;;12.60;99.90;;;;;;5050698;28;20840;-74
2021/10/06 01:00:54;;;;;;;3.27;1.40;;;12.60;99.90;;;;;;5047733;28;20500;-74
2021/10/06 01:03:39;;;;;;;4.33;1.40;;;12.70;99.90;;;;;;5047276;28;20446;-73
2021/10/06 01:06:27;;;;;;;3.40;1.53;;;12.80;99.90;;;;;;5051753;28;20451;-74
2021/10/06 01:09:12;;;;;;;4.03;1.70;;;12.80;99.90;;;;;;5050459;28;20451;-74
2021/10/06 01:12:00;;;;;;;4.83;1.60;;;12.80;99.90;;;;;;5041436;28;20455;-74
2021/10/06 01:14:47;;;;;;;10.23;2.40;;;12.80;99.90;;;;;;5051678;28;20813;-74
2021/10/06 01:17:33;;;;;;;5.83;2.30;;;12.70;99.90;;;;;;5048983;28;20845;-74
2021/10/06 01:20:19;;;;;;;4.90;1.70;;;12.70;99.90;;;;;;5048507;28;20546;-74
2021/10/06 01:23:06;;;;;;;5.30;1.40;;;12.80;99.90;;;;;;5051573;28;20426;-74
2021/10/06 01:25:52;;;;;;;3.67;1.50;;;12.80;99.90;;;;;;5051542;28;20420;-74
2021/10/06 01:28:38;;;;;;;6.87;2.37;;;12.80;99.90;;;;;;5051052;28;20503;-75
2021/10/06 01:31:28;;;;;;;4.87;1.50;;;12.80;99.90;;;;;;5031587;28;20411;-74
2021/10/06 01:34:14;;;;;;;7.07;1.83;;;12.90;99.90;;;;;;5031628;28;20453;-74
2021/10/06 01:36:59;;;;;;;4.60;1.60;;;12.80;99.90;;;;;;5044040;28;20540;-74
2021/10/06 01:39:46;;;;;;;9.90;1.30;;;12.90;99.90;;;;;;5051004;28;20497;-74
2021/10/06 01:42:32;;;;;;;4.50;1.60;;;12.80;99.90;;;;;;5051551;28;20423;-74
2021/10/06 01:45:20;;;;;;;5.17;1.53;;;12.80;99.90;;;;;;5051391;28;20458;-74
2021/10/06 01:48:07;;;;;;;4.60;2.10;;;12.80;99.90;;;;;;5041056;28;20454;-74
2021/10/06 01:50:53;;;;;;;3.97;1.50;;;12.80;99.90;;;;;;5049373;28;20994;-73
2021/10/06 01:53:40;;;;;;;4.07;1.40;;;12.80;99.90;;;;;;5050949;28;20466;-74
2021/10/06 01:56:27;;;;;;;7.57;1.93;;;12.70;99.90;;;;;;5050022;28;20489;-74
2021/10/06 01:59:12;;;;;;;8.20;1.93;;;12.70;99.90;;;;;;5050724;28;20994;-74
2021/10/06 02:01:58;;;;;;;8.40;1.93;;;12.70;99.90;;;;;;5049887;28;20520;-74
2021/10/06 02:04:44;;;;;;;8.77;1.63;;;12.60;99.90;;;;;;5046584;28;20446;-74
2021/10/06 02:07:29;;;;;;;6.97;2.00;;;12.50;99.90;;;;;;5044116;28;20522;-74
2021/10/06 02:10:15;;;;;;;5.90;1.70;;;12.50;99.90;;;;;;5047269;28;20538;-75
2021/10/06 02:13:02;;;;;;;4.90;1.80;;;12.50;99.90;;;;;;5048375;28;20871;-74
2021/10/06 02:15:48;;;;;;;5.00;2.10;;;12.40;99.90;;;;;;5050856;28;20431;-73
2021/10/06 02:18:33;;;;;;;3.80;1.63;;;12.40;99.90;;;;;;5050590;28;20546;-75
2021/10/06 02:21:19;;;;;;;6.50;1.60;;;12.50;99.90;;;;;;5051100;28;20433;-74
2021/10/06 02:24:05;;;;;;;3.80;1.73;;;12.50;99.90;;;;;;5050844;28;20801;-74
2021/10/06 02:26:51;;;;;;;7.13;2.13;;;12.40;99.90;;;;;;5051066;28;20896;-75
2021/10/06 02:29:38;;;;;;;4.37;1.40;;;12.50;99.90;;;;;;5051492;28;20513;-74
2021/10/06 02:32:24;;;;;;;10.43;1.87;;;12.50;99.90;;;;;;5052671;28;20516;-74
2021/10/06 02:35:10;;;;;;;12.13;3.20;;;12.50;99.90;;;;;;5053944;28;20856;-75
2021/10/06 02:37:56;;;;;;;5.70;1.60;;;12.50;99.90;;;;;;5052992;28;20878;-74
2021/10/06 02:40:42;;;;;;;9.27;1.87;;;12.60;99.90;;;;;;5044523;28;20830;-74
2021/10/06 02:43:27;;;;;;;7.27;2.30;;;12.60;99.90;;;;;;5045241;28;20478;-74
2021/10/06 02:46:14;;;;;;;4.30;1.60;;;12.60;99.90;;;;;;5051925;28;20432;-74
2021/10/06 02:49:00;;;;;;;4.97;1.97;;;12.70;99.90;;;;;;5054111;28;20387;-74
2021/10/06 02:51:46;;;;;;;8.63;1.73;;;12.60;99.90;;;;;;5053127;28;20409;-75
2021/10/06 02:54:32;;;;;;;11.07;1.80;;;12.70;99.90;;;;;;5054730;28;20984;-74
2021/10/06 02:57:17;;;;;;;7.53;2.63;;;12.80;99.90;;;;;;5054176;28;20489;-74
2021/10/06 03:00:07;;;;;;;2.93;1.40;;;12.70;99.90;;;;;;5054163;28;20527;-75
2021/10/06 03:02:54;;;;;;;4.60;1.70;;;12.70;99.90;;;;;;5054166;28;20793;-75
2021/10/06 03:05:40;;;;;;;6.77;1.97;;;12.70;99.90;;;;;;5054524;28;20576;-75
2021/10/06 03:08:25;;;;;;;5.23;1.40;;;12.70;99.90;;;;;;5047299;28;21069;-74
2021/10/06 03:11:10;;;;;;;8.20;1.73;;;12.70;99.90;;;;;;5053228;28;20492;-74
2021/10/06 03:13:56;;;;;;;5.87;1.67;;;12.60;99.90;;;;;;5051118;28;20486;-74
2021/10/06 03:16:41;;;;;;;5.43;1.40;;;12.70;99.90;;;;;;5051119;28;20442;-74
2021/10/06 03:19:29;;;;;;;3.57;1.30;;;12.50;99.90;;;;;;5053537;28;20466;-75
2021/10/06 03:22:14;;;;;;;8.00;1.87;;;12.30;99.90;;;;;;5054018;28;20430;-74
2021/10/06 03:25:00;;;;;;;7.90;1.70;;;12.30;99.90;;;;;;5049438;28;20545;-75
2021/10/06 03:27:45;;;;;;;4.87;1.67;;;12.10;99.90;;;;;;5049614;28;20463;-74
2021/10/06 03:30:31;;;;;;;3.33;1.37;;;12.00;99.90;;;;;;5047800;28;20434;-75
2021/10/06 03:33:16;;;;;;;8.27;2.77;;;11.90;99.90;;;;;;5048706;28;20459;-74
2021/10/06 03:36:04;;;;;;;5.10;1.87;;;11.80;99.90;;;;;;5053243;28;20435;-75
2021/10/06 03:38:50;;;;;;;5.17;1.70;;;11.70;99.90;;;;;;5051428;28;20478;-75
2021/10/06 03:41:36;;;;;;;5.70;1.77;;;11.80;99.90;;;;;;5052925;28;20431;-74
2021/10/06 03:44:21;;;;;;;12.30;1.70;;;11.90;99.90;;;;;;5044788;28;20572;-75
2021/10/06 03:47:07;;;;;;;8.07;1.30;;;12.00;99.90;;;;;;5053181;28;21087;-75
2021/10/06 03:49:53;;;;;;;8.33;1.97;;;12.00;99.90;;;;;;5053161;28;20413;-75
2021/10/06 03:52:40;;;;;;;16.90;1.97;;;12.10;99.90;;;;;;5050779;28;20581;-74
2021/10/06 03:55:26;;;;;;;15.00;2.30;;;12.10;99.90;;;;;;5061669;22;20486;-74
2021/10/06 03:58:12;;;;;;;9.33;1.40;;;12.10;99.90;;;;;;5051654;28;20552;-74
2021/10/06 04:00:57;;;;;;;3.20;1.50;;;12.10;99.90;;;;;;5052266;28;20913;-74
2021/10/06 04:03:43;;;;;;;5.90;1.40;;;12.10;99.90;;;;;;5052047;28;20552;-74
2021/10/06 04:06:28;;;;;;;8.70;1.57;;;12.00;99.90;;;;;;5052855;28;20537;-75
2021/10/06 04:09:16;;;;;;;7.63;1.80;;;12.00;99.90;;;;;;5040233;28;20506;-74
2021/10/06 04:12:02;;;;;;;13.03;2.17;;;11.90;99.90;;;;;;5050386;28;20415;-74
2021/10/06 04:14:47;;;;;;;5.90;2.23;;;11.80;99.90;;;;;;5053064;28;20814;-74
2021/10/06 04:17:32;;;;;;;4.30;1.40;;;11.70;99.90;;;;;;5053016;28;20409;-74
2021/10/06 04:20:18;;;;;;;4.47;1.67;;;11.70;99.90;;;;;;5052369;28;20931;-74
2021/10/06 04:23:04;;;;;;;4.33;1.50;;;11.70;99.90;;;;;;5052548;28;20421;-74
2021/10/06 04:25:51;;;;;;;3.37;1.13;;;11.60;99.90;;;;;;5052634;28;20582;-74
2021/10/06 04:28:37;;;;;;;3.30;1.20;;;11.70;99.90;;;;;;5049164;28;20834;-74
2021/10/06 04:31:23;;;;;;;12.70;1.63;;;11.80;99.90;;;;;;5049604;28;20431;-74
2021/10/06 04:34:08;;;;;;;8.00;2.53;;;11.80;99.90;;;;;;5041438;28;20930;-74
2021/10/06 04:36:54;;;;;;;14.63;1.90;;;11.80;99.90;;;;;;5053582;28;20434;-74
2021/10/06 04:39:40;;;;;;;2.87;1.27;;;11.90;99.90;;;;;;5046512;28;20525;-74
2021/10/06 04:42:27;;;;;;;4.70;1.67;;;11.90;99.90;;;;;;5047536;28;20426;-74
2021/10/06 04:45:13;;;;;;;10.03;1.90;;;12.00;99.90;;;;;;5052075;28;20455;-75
2021/10/06 04:47:58;;;;;;;6.67;1.90;;;12.10;99.90;;;;;;5060059;28;20887;-74
2021/10/06 04:50:44;;;;;;;9.67;2.33;;;12.10;99.90;;;;;;5050034;28;20459;-74
2021/10/06 04:53:30;;;;;;;7.23;1.50;;;12.10;99.90;;;;;;5045448;28;21015;-74
2021/10/06 04:56:15;;;;;;;12.93;2.73;;;12.20;99.90;;;;;;5041300;28;20865;-74
2021/10/06 04:59:02;;;;;;;5.20;2.10;;;12.20;99.90;;;;;;5048514;28;20861;-74
2021/10/06 05:01:48;;;;;;;5.23;1.90;;;12.30;99.90;;;;;;5051917;28;20489;-74
2021/10/06 05:04:33;;;;;;;9.73;1.67;;;12.30;99.90;;;;;;5047432;28;20848;-74
2021/10/06 05:07:19;;;;;;;8.10;2.00;;;12.30;99.90;;;;;;5051185;28;20541;-74
2021/10/06 05:10:05;;;;;;;8.17;1.83;;;12.10;99.90;;;;;;5050275;28;20547;-74
2021/10/06 05:12:51;;;;;;;7.17;1.90;;;12.20;99.90;;;;;;5051699;28;20435;-74
2021/10/06 05:15:38;;;;;;;5.80;2.00;;;12.10;99.90;;;;;;5051643;28;20822;-74
2021/10/06 05:18:23;;;;;;;8.30;2.90;;;12.20;99.90;;;;;;5049544;28;20500;-75
2021/10/06 05:21:09;;;;;;;4.13;1.90;;;12.10;99.90;;;;;;5050670;28;20846;-74
2021/10/06 05:23:55;;;;;;;4.47;1.70;;;12.10;99.90;;;;;;5051309;28;20569;-74
2021/10/06 05:26:41;;;;;;;4.30;1.53;;;12.20;99.90;;;;;;5045928;28;20623;-74
2021/10/06 05:29:26;;;;;;;10.03;2.07;;;12.30;99.90;;;;;;5046141;28;20419;-74
2021/10/06 05:32:13;;;;;;;7.87;2.20;;;12.20;99.90;;;;;;5051480;28;20443;-74
2021/10/06 05:34:59;;;;;;;4.20;1.70;;;12.00;99.90;;;;;;5051345;28;20450;-74
2021/10/06 05:37:45;;;;;;;11.37;2.50;;;11.90;99.90;;;;;;5052755;28;20796;-74
2021/10/06 05:40:31;;;;;;;10.00;2.00;;;11.90;99.90;;;;;;5031485;28;20967;-74
2021/10/06 05:43:16;;;;;;;7.70;1.60;;;12.00;99.90;;;;;;5031484;28;20797;-75
2021/10/06 05:46:02;;;;;;;4.63;1.60;;;12.00;99.90;;;;;;5044047;28;20463;-74
2021/10/06 05:48:49;;;;;;;9.50;2.40;;;12.00;99.90;;;;;;5049748;28;20418;-74
2021/10/06 05:51:35;;;;;;;4.40;1.90;;;12.00;99.90;;;;;;5051075;28;20473;-74
2021/10/06 05:54:21;;;;;;;11.33;2.83;;;12.10;99.90;;;;;;5051089;28;20443;-74
2021/10/06 05:57:06;;;;;;;7.27;2.03;;;12.20;99.90;;;;;;5051174;28;20504;-74
2021/10/06 05:59:53;;;;;;;9.63;2.17;;;12.20;99.90;;;;;;5050860;28;20470;-74
2021/10/06 06:02:44;;;;;;;7.13;1.70;;;12.30;99.90;;;;;;5051610;28;20423;-74
2021/10/06 06:05:31;;;;;;;7.27;1.53;;;12.30;99.90;;;;;;5057713;28;20447;-74
2021/10/06 06:08:17;;;;;;;7.77;2.37;;;12.30;99.90;;;;;;5057380;28;20427;-74
2021/10/06 06:11:03;;;;;;;7.93;2.00;;;12.20;99.90;;;;;;5061654;28;20424;-74
2021/10/06 06:13:48;;;;;;;9.60;2.43;;;12.20;99.90;;;;;;5077657;28;20501;-74
2021/10/06 06:16:34;;;;;;;6.80;1.60;;;12.20;99.90;;;;;;5077752;28;20416;-74
2021/10/06 06:19:19;;;;;;;4.33;1.80;;;12.20;99.90;;;;;;5077202;28;20993;-74
2021/10/06 06:22:06;;;;;;;7.50;1.90;;;12.20;99.90;;;;;;5063337;28;21005;-74
2021/10/06 06:24:52;;;;;;;11.43;2.70;;;12.30;99.90;;;;;;5057737;28;20819;-74
2021/10/06 06:27:38;;;;;;;5.00;1.80;;;12.30;99.90;;;;;;5056609;28;20510;-74
2021/10/06 06:30:24;;;;;;;4.23;2.10;;;12.30;99.90;;;;;;5043042;28;20421;-74
2021/10/06 06:33:10;;;;;;;11.90;2.53;;;12.10;99.90;;;;;;5046459;28;20465;-75
2021/10/06 06:35:55;;;;;;;7.53;2.30;;;12.10;99.90;;;;;;5056472;28;20471;-74
2021/10/06 06:38:42;;;;;;;4.93;2.00;;;12.20;99.90;;;;;;5053927;28;20633;-74
2021/10/06 06:41:28;;;;;;;8.43;2.20;;;12.30;99.90;;;;;;5047424;28;20454;-74
2021/10/06 06:44:14;;;;;;;5.97;1.97;;;12.30;99.90;;;;;;5052099;28;20473;-74
2021/10/06 06:47:00;;;;;;;6.63;2.20;;;12.30;99.90;;;;;;5055637;28;20438;-74
2021/10/06 06:49:45;;;;;;;7.00;1.70;;;12.40;99.90;;;;;;5057063;28;20533;-73
2021/10/06 06:52:31;;;;;;;9.23;2.13;;;12.40;99.90;;;;;;5057328;28;21073;-76
2021/10/06 06:55:18;;;;;;;5.13;2.00;;;12.40;99.90;;;;;;5057251;28;20460;-75
2021/10/06 06:58:04;;;;;;;7.50;2.47;;;12.50;99.90;;;;;;5057098;28;20422;-74
2021/10/06 07:00:50;;;;;;;4.40;1.53;;;12.50;99.90;;;;;;5054502;28;20527;-75
2021/10/06 07:03:35;;;;;;;8.90;1.90;;;12.50;99.90;;;;;;5037163;28;20420;-75
2021/10/06 07:06:21;;;;;;;6.13;2.00;;;12.50;99.90;;;;;;5043313;28;20431;-75
2021/10/06 07:09:06;;;;;;;6.93;2.00;;;12.50;99.90;;;;;;5056640;28;20411;-75
2021/10/06 07:11:54;;;;;;;5.57;1.70;;;12.40;99.90;;;;;;5055291;28;20449;-75
2021/10/06 07:14:40;;;;;;;6.00;2.47;;;12.30;99.90;;;;;;5054696;28;20840;-75
2021/10/06 07:17:25;;;;;;;11.53;2.37;;;12.40;99.90;;;;;;5052519;28;20429;-76
2021/10/06 07:20:11;;;;;;;6.90;1.90;;;12.40;99.90;;;;;;5051819;28;21011;-74
2021/10/06 07:22:57;;;;;;;6.23;1.80;;;12.60;99.90;;;;;;5051271;28;20458;-74
2021/10/06 07:25:43;;;;;;;7.60;2.10;;;12.70;99.90;;;;;;5051529;28;20797;-74
2021/10/06 07:28:30;;;;;;;10.40;2.50;;;12.90;99.90;;;;;;5033698;28;20416;-75
2021/10/06 07:31:16;;;;;;;11.77;2.43;;;12.80;99.90;;;;;;5052437;28;20994;-75
2021/10/06 07:34:02;;;;;;;12.97;2.47;;;12.80;99.90;;;;;;5046651;28;20454;-74
2021/10/06 07:36:48;;;;;;;6.93;2.33;;;12.70;99.90;;;;;;5050185;28;20506;-72
2021/10/06 07:39:33;;;;;;;7.07;2.40;;;12.60;99.90;;;;;;5053099;28;20470;-75
2021/10/06 07:42:19;;;;;;;14.33;2.67;;;12.60;99.90;;;;;;5052155;28;20451;-76
2021/10/06 07:45:08;;;;;;;8.27;2.40;;;12.70;99.90;;;;;;5052294;28;20452;-76
2021/10/06 07:47:54;;;;;;;5.33;2.37;;;12.80;99.90;;;;;;5052917;28;20437;-72
2021/10/06 07:50:40;;;;;;;4.80;1.63;;;12.80;99.90;;;;;;5050751;28;20505;-74
2021/10/06 07:53:25;;;;;;;8.43;2.30;;;12.80;99.90;;;;;;5045092;28;20883;-76
2021/10/06 07:56:11;;;;;;;9.73;2.10;;;12.80;99.90;;;;;;5047561;28;20629;-75
2021/10/06 07:58:57;;;;;;;7.50;2.50;;;12.80;99.90;;;;;;5047648;28;20479;-75
2021/10/06 08:01:44;;;;;;;6.97;3.20;;;12.80;99.90;;;;;;5041953;28;20450;-75
2021/10/06 08:04:30;;;;;;;5.67;2.07;;;12.90;99.90;;;;;;5048410;28;20479;-75
2021/10/06 08:07:15;;;;;;;7.20;1.70;;;13.00;99.90;;;;;;5048119;28;20509;-75
2021/10/06 08:10:01;;;;;;;11.23;2.60;;;13.00;99.90;;;;;;5051644;28;20969;-72
2021/10/06 08:12:47;;;;;;;14.43;2.50;;;12.80;99.90;;;;;;5052248;28;20799;-75
2021/10/06 08:15:34;;;;;;;3.53;1.60;;;12.80;99.90;;;;;;5046196;28;20460;-72
2021/10/06 08:18:21;;;;;;;2.73;1.53;;;12.70;99.90;;;;;;5045347;28;20561;-76
2021/10/06 08:21:07;;;;;;;10.03;2.33;;;12.50;99.90;;;;;;5037360;28;20505;-75
2021/10/06 08:23:53;;;;;;;3.57;2.13;;;12.50;99.90;;;;;;5050843;28;20458;-75
2021/10/06 08:26:38;;;;;;;4.53;2.33;;;12.50;99.90;;;;;;5050171;28;20552;-75
2021/10/06 08:29:24;;;;;;;7.00;2.40;;;12.50;99.90;;;;;;5045802;28;20505;-75
2021/10/06 08:32:09;;;;;;;6.30;1.77;;;12.70;99.90;;;;;;5043174;28;20450;-75
2021/10/06 08:34:56;;;;;;;9.83;2.40;;;12.70;99.90;;;;;;5050101;28;20985;-74
2021/10/06 08:37:42;;;;;;;4.17;1.80;;;12.90;99.90;;;;;;5047085;28;20474;-75
2021/10/06 08:40:28;;;;;;;8.63;2.17;;;12.90;99.90;;;;;;5048775;28;20476;-75
2021/10/06 08:43:14;;;;;;;7.00;2.07;;;13.00;99.90;;;;;;5032695;28;20659;-75
2021/10/06 08:45:59;;;;;;;6.50;1.90;;;13.10;99.90;;;;;;5050048;28;20529;-74
2021/10/06 08:48:45;;;;;;;7.20;2.60;;;13.10;99.90;;;;;;5052014;28;20844;-73
2021/10/06 08:51:33;;;;;;;12.50;2.63;;;13.30;99.90;;;;;;5051407;28;21400;-75
2021/10/06 08:54:18;;;;;;;8.10;2.70;;;13.30;99.90;;;;;;5044556;28;21079;-75
2021/10/06 08:57:04;;;;;;;5.97;2.00;;;13.50;99.90;;;;;;5045129;28;20454;-75
2021/10/06 08:59:50;;;;;;;7.60;1.67;;;13.60;99.90;;;;;;5047358;28;20600;-75
2021/10/06 09:02:39;;;;;;;5.57;1.70;;;13.80;99.90;;;;;;5045339;28;20434;-74
2021/10/06 09:05:26;;;;;;;7.07;2.40;;;13.80;99.90;;;;;;5044854;28;20468;-75
2021/10/06 09:08:13;;;;;;;5.00;1.70;;;13.60;99.90;;;;;;5044638;28;21060;-73
2021/10/06 09:10:58;;;;;;;8.70;2.30;;;13.40;99.90;;;;;;5048298;28;20858;-72
2021/10/06 09:13:44;;;;;;;3.80;1.67;;;13.20;99.90;;;;;;5036842;28;20471;-74
2021/10/06 09:16:29;;;;;;;8.13;2.37;;;13.30;99.90;;;;;;5047259;28;20472;-75
2021/10/06 09:19:36;;;;;;;2.70;1.33;;;13.50;99.90;;;;;;5041450;28;20475;-74
2021/10/06 09:22:23;;;;;;;7.13;1.80;;;13.50;99.90;;;;;;5043186;28;20475;-75
2021/10/06 09:25:11;;;;;;;8.70;1.73;;;13.50;99.90;;;;;;5049435;28;20518;-74
2021/10/06 09:27:57;;;;;;;4.77;1.90;;;13.50;99.90;;;;;;5044934;28;20450;-75
2021/10/06 09:30:44;;;;;;;7.80;1.60;;;13.60;99.90;;;;;;5050236;28;20454;-75
2021/10/06 09:33:44;;;;;;;4.73;1.80;;;13.70;99.90;;;;;;5051043;28;20427;-76
2021/10/06 09:36:31;;;;;;;10.97;1.90;;;13.80;99.90;;;;;;5047849;28;20450;-76
2021/10/06 09:39:17;;;;;;;5.90;2.00;;;13.90;99.90;;;;;;5039394;28;20470;-76
2021/10/06 09:42:05;;;;;;;7.67;1.87;;;14.00;99.90;;;;;;5046562;28;20427;-76
2021/10/06 09:44:55;;;;;;;12.33;1.60;;;14.20;99.90;;;;;;5039731;28;20516;-75
2021/10/06 09:48:00;;;;;;;3.47;1.57;;;14.30;99.90;;;;;;5047401;28;21052;-74
2021/10/06 09:50:48;;;;;;;6.50;3.27;;;14.20;99.90;;;;;;5047357;28;20447;-75
2021/10/06 09:53:34;;;;;;;2.93;1.80;;;14.20;99.90;;;;;;5043063;28;20467;-75
2021/10/06 09:56:20;;;;;;;6.53;1.60;;;14.20;99.90;;;;;;5041860;28;20981;-74
2021/10/06 09:59:08;;;;;;;4.33;1.50;;;14.30;99.90;;;;;;5048600;28;20422;-74
2021/10/06 10:01:54;;;;;;;4.20;1.60;;;14.50;99.90;;;;;;5049551;28;20467;-74
2021/10/06 10:04:40;;;;;;;4.10;1.60;;;14.30;99.90;;;;;;5046402;28;20829;-73
2021/10/06 10:07:25;;;;;;;6.13;1.70;;;14.40;99.90;;;;;;5045021;28;20447;-75
2021/10/06 10:10:15;;;;;;;3.97;1.73;;;14.60;99.90;;;;;;5045722;28;20437;-74
2021/10/06 10:13:00;;;;;;;7.70;1.80;;;14.90;99.90;;;;;;5047481;28;20455;-74
2021/10/06 10:15:47;;;;;;;5.80;1.50;;;15.00;99.90;;;;;;5043095;28;20514;-74
2021/10/06 10:18:33;;;;;;;11.60;1.97;;;15.10;99.90;;;;;;5038910;28;20474;-73
2021/10/06 10:21:20;;;;;;;6.53;2.00;;;15.00;99.90;;;;;;5043243;28;21018;-74
2021/10/06 10:24:08;;;;;;;9.20;2.20;;;14.80;99.90;;;;;;5047767;28;20443;-74
2021/10/06 10:27:03;;;;;;;3.97;1.43;;;14.60;99.90;;;;;;5043105;28;20444;-75
2021/10/06 10:29:51;;;;;;;4.27;1.67;;;14.50;99.90;;;;;;5050215;28;20424;-74
2021/10/06 10:32:45;;;;;;;10.27;2.00;;;14.50;99.90;;;;;;5049421;28;20424;-74
2021/10/06 10:35:37;;;;;;;4.97;1.60;;;14.30;99.90;;;;;;5045831;28;20467;-74
2021/10/06 10:38:35;;;;;;;5.87;1.80;;;14.10;99.90;;;;;;5047566;28;20813;-74
2021/10/06 10:41:42;;;;;;;4.97;1.60;;;13.90;99.90;;;;;;5048653;28;20476;-74
2021/10/06 10:44:33;;;;;;;6.23;2.60;;;13.80;99.90;;;;;;5044289;28;20448;-74
2021/10/06 10:47:19;;;;;;;10.77;1.83;;;13.80;99.90;;;;;;5041555;28;20443;-74
2021/10/06 10:50:07;;;;;;;2.87;1.40;;;13.70;99.90;;;;;;5047278;28;20445;-74
2021/10/06 10:52:53;;;;;;;4.87;1.80;;;13.70;99.90;;;;;;5051615;28;20476;-74
2021/10/06 10:55:47;;;;;;;5.57;1.60;;;13.80;99.90;;;;;;5050997;28;20472;-74
2021/10/06 10:58:35;;;;;;;7.00;1.63;;;13.80;99.90;;;;;;5042777;28;20987;-74
2021/10/06 11:01:42;;;;;;;6.47;1.70;;;13.90;99.90;;;;;;5048979;28;20472;-74
2021/10/06 11:04:29;;;;;;;4.10;1.80;;;14.00;99.90;;;;;;5046053;28;20613;-75
2021/10/06 11:07:19;;;;;;;3.80;1.53;;;14.10;99.90;;;;;;5053627;28;20537;-73
2021/10/06 11:10:16;;;;;;;2.40;1.20;;;14.30;99.90;;;;;;5049522;28;20449;-74
2021/10/06 11:13:05;;;;;;;17.40;2.07;;;14.50;99.90;;;;;;5052806;28;20519;-76
2021/10/06 11:15:51;;;;;;;8.83;2.10;;;14.60;99.90;;;;;;5050169;28;20522;-78
2021/10/06 11:18:41;;;;;;;5.27;1.87;;;14.50;99.90;;;;;;5042938;28;20476;-78
2021/10/06 11:21:31;;;;;;;4.97;1.87;;;14.40;99.90;;;;;;5046956;28;20457;-74
2021/10/06 11:24:25;;;;;;;7.20;2.00;;;14.50;99.90;;;;;;5051835;28;20842;-73
2021/10/06 11:27:11;;;;;;;4.57;2.00;;;14.60;99.90;;;;;;5047637;28;20447;-73
2021/10/06 11:29:58;;;;;;;5.23;1.83;;;14.50;99.90;;;;;;5053329;28;20427;-72
2021/10/06 11:32:49;;;;;;;8.50;1.73;;;14.50;99.90;;;;;;5048730;28;20469;-74
2021/10/06 11:35:34;;;;;;;10.57;1.87;;;14.50;99.90;;;;;;5048342;28;20462;-74
2021/10/06 11:38:20;;;;;;;4.33;1.37;;;14.30;99.90;;;;;;5045181;28;20431;-74
2021/10/06 11:41:08;;;;;;;10.40;2.50;;;14.30;99.90;;;;;;5045549;28;20439;-74
2021/10/06 11:43:56;;;;;;;6.40;1.57;;;14.10;99.90;;;;;;5051592;28;20479;-74
2021/10/06 11:46:42;;;;;;;7.80;2.07;;;14.00;99.90;;;;;;5053505;28;20472;-74
2021/10/06 11:49:29;;;;;;;5.30;2.27;;;14.00;99.90;;;;;;5040568;28;20428;-74
2021/10/06 11:52:17;;;;;;;8.33;1.80;;;14.10;99.90;;;;;;5036065;28;20442;-74
2021/10/06 11:55:03;;;;;;;7.10;1.80;;;14.00;99.90;;;;;;5043407;28;20975;-73
2021/10/06 11:57:51;;;;;;;9.50;2.50;;;13.80;99.90;;;;;;5051466;28;20450;-74
2021/10/06 12:00:36;;;;;;;6.60;2.57;;;13.70;99.90;;;;;;5049722;28;21008;-74
2021/10/06 12:03:22;;;;;;;5.77;1.90;;;13.60;99.90;;;;;;5044995;28;20810;-74
2021/10/06 12:06:08;;;;;;;8.93;2.20;;;13.50;99.90;;;;;;5053474;28;21058;-74
2021/10/06 12:08:57;;;;;;;5.60;2.20;;;13.50;99.90;;;;;;5046019;28;20577;-73
2021/10/06 12:11:45;;;;;;;12.97;2.73;;;13.60;99.90;;;;;;5048202;28;20563;-75
2021/10/06 12:14:33;;;;;;;6.70;2.87;;;13.50;99.90;;;;;;5047091;28;20426;-74
2021/10/06 12:17:21;;;;;;;6.60;2.20;;;13.50;99.90;;;;;;5052054;28;20429;-74
2021/10/06 12:20:09;;;;;;;7.90;2.57;;;13.70;99.90;;;;;;5051759;28;20864;-74
2021/10/06 12:22:57;;;;;;;6.93;2.37;;;13.60;99.90;;;;;;5049245;28;20433;-75
2021/10/06 12:25:42;;;;;;;9.10;2.80;;;13.70;99.90;;;;;;5044613;28;20847;-74
2021/10/06 12:28:32;;;;;;;6.97;2.53;;;13.70;99.90;;;;;;5052041;28;20565;-74
2021/10/06 12:31:26;;;;;;;4.83;2.17;;;13.70;99.90;;;;;;5051577;28;20456;-74
2021/10/06 12:34:13;;;;;;;8.30;2.40;;;13.70;99.90;;;;;;5051590;28;20595;-74
2021/10/06 12:36:59;;;;;;;11.00;2.37;;;13.80;99.90;;;;;;5052314;28;20424;-74
2021/10/06 12:39:44;;;;;;;4.43;1.83;;;13.70;99.90;;;;;;5050911;28;20438;-74
2021/10/06 12:42:30;;;;;;;7.63;2.70;;;13.80;99.90;;;;;;5051313;28;21020;-74
2021/10/06 12:45:19;;;;;;;7.87;2.50;;;13.80;99.90;;;;;;5038204;28;20475;-75
2021/10/06 12:48:06;;;;;;;6.93;3.60;;;13.80;99.90;;;;;;5049536;28;20444;-74
2021/10/06 12:50:57;;;;;;;8.70;2.47;;;13.70;99.90;;;;;;5052133;28;20752;-75
2021/10/06 12:53:54;;;;;;;5.87;2.10;;;13.50;99.90;;;;;;5042815;28;21034;-74
2021/10/06 12:56:41;;;;;;;5.50;2.47;;;13.50;99.90;;;;;;5047646;28;20405;-75
2021/10/06 12:59:36;;;;;;;5.30;1.87;;;13.50;99.90;;;;;;5042942;28;20452;-75
2021/10/06 13:02:22;;;;;;;6.27;2.63;;;13.40;99.90;;;;;;5051923;28;20895;-74
2021/10/06 13:05:10;;;;;;;4.53;2.27;;;13.30;99.90;;;;;;5051783;28;20425;-75
2021/10/06 13:07:55;;;;;;;4.47;2.23;;;13.20;99.90;;;;;;5053220;28;20556;-74
2021/10/06 13:10:41;;;;;;;5.63;1.70;;;13.30;99.90;;;;;;5048580;28;20449;-75
2021/10/06 13:13:27;;;;;;;8.80;2.33;;;13.40;99.90;;;;;;5044989;28;20850;-74
2021/10/06 13:16:13;;;;;;;4.10;2.10;;;13.50;99.90;;;;;;5048259;28;20835;-75
2021/10/06 13:19:00;;;;;;;4.37;2.40;;;13.60;99.90;;;;;;5040699;28;20454;-74
2021/10/06 13:21:49;;;;;;;6.53;1.70;;;13.60;99.90;;;;;;5045526;28;20609;-75
2021/10/06 13:24:35;;;;;;;4.60;1.63;;;13.60;99.90;;;;;;5040949;28;20593;-73
2021/10/06 13:27:20;;;;;;;6.43;1.80;;;13.70;99.90;;;;;;5035802;28;20452;-73
2021/10/06 13:30:07;;;;;;;5.23;1.80;;;13.70;99.90;;;;;;5049621;28;20430;-73
2021/10/06 13:32:53;;;;;;;8.33;1.90;;;13.70;99.90;;;;;;5055376;28;21015;-73
2021/10/06 13:35:38;;;;;;;4.73;2.10;;;13.70;99.90;;;;;;5050223;28;20505;-74
2021/10/06 13:38:26;;;;;;;5.00;1.63;;;13.60;99.90;;;;;;5050903;28;20802;-74
2021/10/06 13:41:13;;;;;;;7.33;2.40;;;13.60;99.90;;;;;;5051515;28;20478;-74
2021/10/06 13:44:00;;;;;;;4.63;2.27;;;13.70;99.90;;;;;;5051442;28;20427;-74
2021/10/06 13:46:46;;;;;;;7.07;1.97;;;13.70;99.90;;;;;;5051402;28;20517;-75
2021/10/06 13:49:32;;;;;;;3.03;1.73;;;13.70;99.90;;;;;;5051252;28;20508;-74
2021/10/06 13:52:17;;;;;;;6.07;2.00;;;13.70;99.90;;;;;;5051111;28;20423;-74
2021/10/06 13:55:05;;;;;;;4.37;1.90;;;13.70;99.90;;;;;;5051186;28;20530;-74
2021/10/06 13:57:53;;;;;;;7.03;2.10;;;13.60;99.90;;;;;;5051367;28;20501;-74
2021/10/06 14:00:38;;;;;;;9.43;1.87;;;13.40;99.90;;;;;;5051115;28;20576;-74
2021/10/06 14:03:24;;;;;;;7.50;2.07;;;13.30;99.90;;;;;;5051431;28;20430;-75
2021/10/06 14:06:10;;;;;;;8.00;2.07;;;13.20;99.90;;;;;;5051049;28;20451;-75
2021/10/06 14:08:55;;;;;;;2.30;1.40;;;13.30;99.90;;;;;;5050833;28;20480;-74
2021/10/06 14:11:42;;;;;;;6.83;1.73;;;13.30;99.90;;;;;;5050211;28;20426;-74
2021/10/06 14:14:28;;;;;;;6.70;2.60;;;13.30;99.90;;;;;;5051035;28;20494;-74
2021/10/06 14:17:13;;;;;;;5.00;1.93;;;13.40;99.90;;;;;;5050861;28;20916;-74
2021/10/06 14:19:59;;;;;;;5.37;1.90;;;13.30;99.90;;;;;;5050615;28;20404;-74
2021/10/06 14:22:46;;;;;;;6.10;2.27;;;13.30;99.90;;;;;;5050625;28;20795;-74
2021/10/06 14:25:32;;;;;;;6.70;2.40;;;13.30;99.90;;;;;;5053567;28;20557;-74
2021/10/06 14:28:19;;;;;;;6.50;2.30;;;13.30;99.90;;;;;;5054426;28;20423;-74